Terminal Aerodrome Forecast
Issued by NWS

Home | Current Version | Previous Version | Text Only | Print | Product List | Glossary Off
Versions: 1 2 3 4 5 6 7 8 9 10 11 12 13 14 15 16 17 18 19 20

000
FTUS43 KFGF 242100 AAA
TAFBJI
TAF AMD
KBJI 242145Z 2422/2518 22006KT P6SM OVC016
      TEMPO 2422/2424 OVC005
     FM250000 23006KT P6SM OVC007
     FM251500 30006KT P6SM OVC010=

USA.gov is the U.S. government's official web portal to all federal, state and local government web resources and services.